createdAt,value
2019-03-23T00:00:38.219Z,5.83
2019-03-23T00:03:04.249Z,5.95
2019-03-23T00:05:30.288Z,5.28
2019-03-23T00:07:56.316Z,6.28
2019-03-23T00:10:22.346Z,6.03
2019-03-23T00:12:48.492Z,6.10
2019-03-23T00:15:15.119Z,6.22
2019-03-23T00:17:41.171Z,8.50
2019-03-23T00:20:08.432Z,8.73
2019-03-23T00:22:34.785Z,9.68
2019-03-23T00:25:00.796Z,11.10
2019-03-23T00:27:26.855Z,11.60
2019-03-23T00:29:52.929Z,13.30
2019-03-23T00:32:19.050Z,12.47
2019-03-23T00:34:45.088Z,13.20
2019-03-23T00:37:11.132Z,14.95
2019-03-23T00:39:37.427Z,13.90
2019-03-23T00:42:03.466Z,14.87
2019-03-23T00:44:29.552Z,14.25
2019-03-23T00:46:55.602Z,16.65
2019-03-23T00:49:21.643Z,16.65
2019-03-23T00:51:47.666Z,15.45
2019-03-23T00:54:13.693Z,16.20
2019-03-23T00:56:39.713Z,15.72
2019-03-23T00:59:05.733Z,17.85
2019-03-23T01:01:31.774Z,16.55
2019-03-23T01:03:58.442Z,17.50
2019-03-23T01:06:24.794Z,19.02
2019-03-23T01:08:50.850Z,17.23
2019-03-23T01:11:17.122Z,18.23
2019-03-23T01:13:43.162Z,17.52
2019-03-23T01:16:09.173Z,18.90
2019-03-23T01:18:35.214Z,17.07
2019-03-23T01:21:01.232Z,17.92
2019-03-23T01:23:27.290Z,17.95
2019-03-23T01:25:53.301Z,18.00
2019-03-23T01:28:19.341Z,14.58
2019-03-23T01:30:45.349Z,13.20
2019-03-23T01:33:11.379Z,14.20
2019-03-23T01:35:37.401Z,15.15
2019-03-23T01:38:03.417Z,14.55
2019-03-23T01:40:29.448Z,15.10
2019-03-23T01:42:55.467Z,14.63
2019-03-23T01:45:21.557Z,15.08
2019-03-23T01:47:47.609Z,14.80
2019-03-23T01:50:13.852Z,15.05
2019-03-23T01:52:39.888Z,14.38
2019-03-23T01:55:07.034Z,15.40
2019-03-23T01:57:33.050Z,15.53
2019-03-23T01:59:59.082Z,17.00
2019-03-23T02:02:25.118Z,18.52
2019-03-23T02:04:51.149Z,17.67
2019-03-23T02:07:17.176Z,18.25
2019-03-23T02:09:43.209Z,18.90
2019-03-23T02:12:09.227Z,19.32
2019-03-23T02:14:35.583Z,18.73
2019-03-23T02:17:01.599Z,22.85
2019-03-23T02:19:27.646Z,21.73
2019-03-23T02:21:53.668Z,21.48
2019-03-23T02:24:19.696Z,22.25
2019-03-23T02:26:45.723Z,23.00
2019-03-23T02:29:12.014Z,23.67
2019-03-23T02:31:38.042Z,23.52
2019-03-23T02:34:04.093Z,23.30
2019-03-23T02:36:30.155Z,23.65
2019-03-23T02:38:56.187Z,26.93
2019-03-23T02:41:22.383Z,26.20
2019-03-23T02:43:48.475Z,28.20
2019-03-23T02:46:14.507Z,26.80
2019-03-23T02:48:40.525Z,27.90
2019-03-23T02:51:06.550Z,27.32
2019-03-23T02:53:32.703Z,27.80
2019-03-23T02:55:58.767Z,29.67
2019-03-23T02:58:25.004Z,28.52
2019-03-23T03:00:51.014Z,29.80
2019-03-23T03:03:17.039Z,30.68
2019-03-23T03:05:43.058Z,29.60
2019-03-23T03:08:09.185Z,28.45
2019-03-23T03:10:38.808Z,29.98
2019-03-23T03:13:05.244Z,34.65
2019-03-23T03:15:31.274Z,32.25
2019-03-23T03:17:57.300Z,32.10
2019-03-23T03:20:23.455Z,31.87
2019-03-23T03:22:49.470Z,30.17
2019-03-23T03:25:15.515Z,30.80
2019-03-23T03:27:41.545Z,30.48
2019-03-23T03:30:09.595Z,28.95
2019-03-23T03:32:35.678Z,28.83
2019-03-23T03:35:01.978Z,28.92
2019-03-23T03:37:28.107Z,27.22
2019-03-23T03:39:54.346Z,25.23
2019-03-23T03:42:20.386Z,24.75
2019-03-23T03:44:46.431Z,26.65
2019-03-23T03:47:12.495Z,27.87
2019-03-23T03:49:38.515Z,25.45
2019-03-23T03:52:04.558Z,27.50
2019-03-23T03:54:30.595Z,28.10
2019-03-23T03:56:56.594Z,29.02
2019-03-23T03:59:22.938Z,25.27
2019-03-23T04:01:48.985Z,26.25
2019-03-23T04:04:15.127Z,27.07
2019-03-23T04:06:41.426Z,26.77
2019-03-23T04:09:07.425Z,27.90
2019-03-23T04:11:33.883Z,31.25
2019-03-23T04:14:00.189Z,24.60
2019-03-23T04:16:26.240Z,27.22
2019-03-23T04:18:52.256Z,37.25
2019-03-23T04:21:18.303Z,33.02
2019-03-23T04:23:44.331Z,26.87
2019-03-23T04:26:10.358Z,27.50
2019-03-23T04:28:36.374Z,24.77
2019-03-23T04:31:02.426Z,30.55
2019-03-23T04:33:28.462Z,28.12
2019-03-23T04:35:54.496Z,29.12
2019-03-23T04:38:23.115Z,26.33
2019-03-23T04:40:48.430Z,27.93
2019-03-23T04:43:14.826Z,30.00
2019-03-23T04:45:40.837Z,26.70
2019-03-23T04:48:06.887Z,28.15
2019-03-23T04:50:32.932Z,27.85
2019-03-23T04:52:58.974Z,27.02
2019-03-23T04:55:24.999Z,28.60
2019-03-23T04:57:51.050Z,28.35
2019-03-23T05:00:18.871Z,28.83
2019-03-23T05:02:45.051Z,34.15
2019-03-23T05:05:11.260Z,30.00
2019-03-23T05:07:37.300Z,27.90
2019-03-23T05:10:05.123Z,30.68
2019-03-23T05:12:31.153Z,28.60
2019-03-23T05:14:57.173Z,27.48
2019-03-23T05:17:23.217Z,29.65
2019-03-23T05:19:49.236Z,31.15
2019-03-23T05:22:15.283Z,29.98
2019-03-23T05:24:41.305Z,29.95
2019-03-23T05:27:07.353Z,25.88
2019-03-23T05:29:33.382Z,29.18
2019-03-23T05:31:59.402Z,27.65
2019-03-23T05:34:25.439Z,31.52
2019-03-23T05:36:51.835Z,29.25
2019-03-23T05:39:17.863Z,33.55
2019-03-23T05:41:43.911Z,31.07
2019-03-23T05:44:09.942Z,27.77
2019-03-23T05:46:35.949Z,28.15
2019-03-23T05:49:01.979Z,30.02
2019-03-23T05:51:28.019Z,31.37
2019-03-23T05:53:54.055Z,29.20
2019-03-23T05:56:20.094Z,30.12
2019-03-23T05:58:46.131Z,28.32
2019-03-23T06:01:12.165Z,31.02
2019-03-23T06:03:38.215Z,29.82
2019-03-23T06:06:04.259Z,29.70
2019-03-23T06:08:30.271Z,27.70
2019-03-23T06:10:56.295Z,30.50
2019-03-23T06:13:22.675Z,29.48
2019-03-23T06:15:48.708Z,30.57
2019-03-23T06:18:14.748Z,28.67
2019-03-23T06:20:40.773Z,29.00
2019-03-23T06:23:06.811Z,30.17
2019-03-23T06:25:33.211Z,30.57
2019-03-23T06:27:59.230Z,30.68
2019-03-23T06:30:25.269Z,31.93
2019-03-23T06:32:51.313Z,29.50
2019-03-23T06:35:17.411Z,31.55
2019-03-23T06:37:43.509Z,29.25
2019-03-23T06:40:18.398Z,30.27
2019-03-23T06:42:44.445Z,30.35
2019-03-23T06:45:11.083Z,32.00
2019-03-23T06:47:37.101Z,29.52
2019-03-23T06:50:05.531Z,27.85
2019-03-23T06:52:31.557Z,29.35
2019-03-23T06:54:57.578Z,32.67
2019-03-23T06:57:23.597Z,31.85
2019-03-23T06:59:49.649Z,31.15
2019-03-23T07:02:15.657Z,34.70
2019-03-23T07:04:41.683Z,31.95
2019-03-23T07:07:07.735Z,30.55
2019-03-23T07:09:33.777Z,31.10
2019-03-23T07:11:59.856Z,31.27
2019-03-23T07:14:25.940Z,30.37
2019-03-23T07:16:51.964Z,32.50
2019-03-23T07:19:17.979Z,32.25
2019-03-23T07:21:44.013Z,33.05
2019-03-23T07:24:10.029Z,32.28
2019-03-23T07:26:36.058Z,30.32
2019-03-23T07:29:02.378Z,31.17
2019-03-23T07:31:28.407Z,33.42
2019-03-23T07:33:54.421Z,32.53
2019-03-23T07:36:20.465Z,32.88
2019-03-23T07:38:47.010Z,30.17
2019-03-23T07:41:13.139Z,31.60
2019-03-23T07:43:39.170Z,30.43
2019-03-23T07:46:05.194Z,32.88
2019-03-23T07:48:31.219Z,31.62
2019-03-23T07:50:57.515Z,32.28
2019-03-23T07:53:23.544Z,33.65
2019-03-23T07:55:49.638Z,31.50
2019-03-23T07:58:15.679Z,32.40
2019-03-23T08:00:41.697Z,31.48
2019-03-23T08:03:07.713Z,32.83
2019-03-23T08:05:33.746Z,32.05
2019-03-23T08:07:59.769Z,30.40
2019-03-23T08:10:31.303Z,30.52
2019-03-23T08:12:57.427Z,30.37
2019-03-23T08:15:23.702Z,32.05
2019-03-23T08:17:49.785Z,30.68
2019-03-23T08:20:16.129Z,29.25
2019-03-23T08:22:42.181Z,29.48
2019-03-23T08:25:08.320Z,29.75
2019-03-23T08:27:34.457Z,32.05
2019-03-23T08:30:00.525Z,28.25
2019-03-23T08:32:26.553Z,31.80
2019-03-23T08:34:52.663Z,29.70
2019-03-23T08:37:18.810Z,29.35
2019-03-23T08:39:48.747Z,31.10
2019-03-23T08:42:12.833Z,31.42
2019-03-23T08:44:38.904Z,31.00
2019-03-23T08:47:04.944Z,33.02
2019-03-23T08:49:31.013Z,29.70
2019-03-23T08:51:57.047Z,29.90
2019-03-23T08:54:23.127Z,29.90
2019-03-23T08:56:49.221Z,31.37
2019-03-23T08:59:15.239Z,29.23
2019-03-23T09:01:41.262Z,28.55
2019-03-23T09:04:07.339Z,28.73
2019-03-23T09:06:33.397Z,28.02
2019-03-23T09:08:59.433Z,29.87
2019-03-23T09:11:25.448Z,30.25
2019-03-23T09:13:51.490Z,27.70
2019-03-23T09:16:17.544Z,27.70
2019-03-23T09:18:43.837Z,28.90
2019-03-23T09:21:09.873Z,27.20
2019-03-23T09:23:35.935Z,28.40
2019-03-23T09:26:01.998Z,27.10
2019-03-23T09:28:28.286Z,29.85
2019-03-23T09:30:54.340Z,26.95
2019-03-23T09:33:20.846Z,28.87
2019-03-23T09:35:46.857Z,32.80
2019-03-23T09:38:12.906Z,29.23
2019-03-23T09:40:38.933Z,29.92
2019-03-23T09:43:04.952Z,28.75
2019-03-23T09:45:30.974Z,28.77
2019-03-23T09:47:57.206Z,29.20
2019-03-23T09:50:23.228Z,28.27
2019-03-23T09:52:49.259Z,26.82
2019-03-23T09:55:15.275Z,25.25
2019-03-23T09:57:41.320Z,27.05
2019-03-23T10:00:10.248Z,27.13
2019-03-23T10:02:36.270Z,26.75
2019-03-23T10:05:03.981Z,27.37
2019-03-23T10:07:30.035Z,25.30
2019-03-23T10:09:56.110Z,29.80
2019-03-23T10:12:22.158Z,28.90
2019-03-23T10:14:48.203Z,28.25
2019-03-23T10:17:14.220Z,33.60
2019-03-23T10:19:40.342Z,35.45
2019-03-23T10:22:06.354Z,29.02
2019-03-23T10:24:32.436Z,30.00
2019-03-23T10:26:58.556Z,29.00
2019-03-23T10:29:24.592Z,27.73
2019-03-23T10:31:50.607Z,28.73
2019-03-23T10:34:16.672Z,29.18
2019-03-23T10:36:42.746Z,31.05
2019-03-23T10:39:08.822Z,27.82
2019-03-23T10:41:34.873Z,28.52
2019-03-23T10:44:00.907Z,27.87
2019-03-23T10:46:26.964Z,29.32
2019-03-23T10:48:52.987Z,27.13
2019-03-23T10:51:19.126Z,29.02
2019-03-23T10:53:45.202Z,27.67
2019-03-23T10:56:11.248Z,25.15
2019-03-23T10:58:37.285Z,28.60
2019-03-23T11:01:03.294Z,31.93
2019-03-23T11:03:29.355Z,33.28
2019-03-23T11:05:55.501Z,27.02
2019-03-23T11:08:21.612Z,28.00
2019-03-23T11:10:47.649Z,28.02
2019-03-23T11:13:13.723Z,27.05
2019-03-23T11:15:39.746Z,25.17
2019-03-23T11:18:05.772Z,25.60
2019-03-23T11:20:31.819Z,27.27
2019-03-23T11:22:57.876Z,27.17
2019-03-23T11:25:24.115Z,27.90
2019-03-23T11:27:50.139Z,27.40
2019-03-23T11:30:16.257Z,26.45
2019-03-23T11:32:42.608Z,26.42
2019-03-23T11:35:08.791Z,28.40
2019-03-23T11:37:35.497Z,27.13
2019-03-23T11:40:02.105Z,26.75
2019-03-23T11:42:28.135Z,28.47
2019-03-23T11:44:54.294Z,26.77
2019-03-23T11:47:20.442Z,31.55
2019-03-23T11:49:46.461Z,30.60
2019-03-23T11:52:12.936Z,30.80
2019-03-23T11:54:39.009Z,28.73
2019-03-23T11:57:05.191Z,28.47
2019-03-23T11:59:31.355Z,30.00
2019-03-23T12:01:57.395Z,29.07
2019-03-23T12:04:24.962Z,33.02
2019-03-23T12:06:51.378Z,33.30
2019-03-23T12:09:17.394Z,37.78
2019-03-23T12:11:43.430Z,40.92
2019-03-23T12:14:09.460Z,40.03
2019-03-23T12:16:35.793Z,39.60
2019-03-23T12:19:01.985Z,40.03
2019-03-23T12:21:28.061Z,34.50
2019-03-23T12:23:54.171Z,36.98
2019-03-23T12:26:20.506Z,34.63
2019-03-23T12:28:47.357Z,36.20
2019-03-23T12:31:13.442Z,38.38
2019-03-23T12:33:39.461Z,35.98
2019-03-23T12:36:05.493Z,37.23
2019-03-23T12:38:31.651Z,32.90
2019-03-23T12:40:57.717Z,34.75
2019-03-23T12:43:23.728Z,34.53
2019-03-23T12:45:49.790Z,37.85
2019-03-23T12:48:15.898Z,35.23
2019-03-23T12:50:42.350Z,37.33
2019-03-23T12:53:08.673Z,36.42
2019-03-23T12:55:34.707Z,32.35
2019-03-23T12:58:00.742Z,35.88
2019-03-23T13:00:26.783Z,39.58
2019-03-23T13:02:53.736Z,40.50
2019-03-23T13:05:19.777Z,37.35
2019-03-23T13:07:45.848Z,33.35
2019-03-23T13:10:12.774Z,34.15
2019-03-23T13:12:38.986Z,33.08
2019-03-23T13:15:07.728Z,33.13
2019-03-23T13:17:33.764Z,33.95
2019-03-23T13:19:59.856Z,29.42
2019-03-23T13:22:25.949Z,30.02
2019-03-23T13:24:52.011Z,34.05
2019-03-23T13:27:18.415Z,31.42
2019-03-23T13:29:44.744Z,27.58
2019-03-23T13:32:10.802Z,27.55
2019-03-23T13:34:36.838Z,26.70
2019-03-23T13:37:02.992Z,25.62
2019-03-23T13:39:29.026Z,25.62
2019-03-23T13:41:55.082Z,27.73
2019-03-23T13:44:21.123Z,30.88
2019-03-23T13:46:47.145Z,26.07
2019-03-23T13:49:13.188Z,33.60
2019-03-23T13:51:39.347Z,28.35
2019-03-23T13:54:05.386Z,27.00
2019-03-23T13:56:31.418Z,35.23
2019-03-23T13:58:57.469Z,31.10
2019-03-23T14:01:23.766Z,32.42
2019-03-23T14:03:49.874Z,35.08
2019-03-23T14:06:15.893Z,30.95
2019-03-23T14:08:41.931Z,29.85
2019-03-23T14:11:07.994Z,26.37
2019-03-23T14:13:34.044Z,26.23
2019-03-23T14:16:00.410Z,25.90
2019-03-23T14:18:26.478Z,28.52
2019-03-23T14:20:52.504Z,32.20
2019-03-23T14:23:18.527Z,28.35
2019-03-23T14:25:44.537Z,32.95
2019-03-23T14:28:10.589Z,32.58
2019-03-23T14:30:36.683Z,26.77
2019-03-23T14:33:02.739Z,24.60
2019-03-23T14:35:28.830Z,30.90
2019-03-23T14:37:54.877Z,25.85
2019-03-23T14:40:20.918Z,28.12
2019-03-23T14:42:46.947Z,27.65
2019-03-23T14:45:13.017Z,27.32
2019-03-23T14:47:39.107Z,30.35
2019-03-23T14:50:05.530Z,28.80
2019-03-23T14:52:31.545Z,26.30
2019-03-23T14:54:57.572Z,28.62
2019-03-23T14:57:23.598Z,26.77
2019-03-23T14:59:49.738Z,26.73
2019-03-23T15:02:15.750Z,27.30
2019-03-23T15:04:41.794Z,27.13
2019-03-23T15:07:07.812Z,27.58
2019-03-23T15:09:33.846Z,27.93
2019-03-23T15:11:59.859Z,27.90
2019-03-23T15:14:25.877Z,28.15
2019-03-23T15:16:51.890Z,28.75
2019-03-23T15:19:18.012Z,28.25
2019-03-23T15:21:44.143Z,27.25
2019-03-23T15:24:10.187Z,27.98
2019-03-23T15:26:36.229Z,26.35
2019-03-23T15:29:02.247Z,27.07
2019-03-23T15:31:28.289Z,27.77
2019-03-23T15:33:54.410Z,25.90
2019-03-23T15:36:20.434Z,28.02
2019-03-23T15:38:46.480Z,27.35
2019-03-23T15:41:12.510Z,26.60
2019-03-23T15:43:38.525Z,27.75
2019-03-23T15:46:04.549Z,26.77
2019-03-23T15:48:30.688Z,26.30
2019-03-23T15:50:56.714Z,25.75
2019-03-23T15:53:22.783Z,24.52
2019-03-23T15:55:48.787Z,24.15
2019-03-23T15:58:14.801Z,25.48
2019-03-23T16:00:40.816Z,25.23
2019-03-23T16:03:06.813Z,25.82
2019-03-23T16:05:32.843Z,23.92
2019-03-23T16:07:58.891Z,25.97
2019-03-23T16:10:24.946Z,25.37
2019-03-23T16:12:51.323Z,22.85
2019-03-23T16:15:17.560Z,24.87
2019-03-23T16:17:43.560Z,24.00
2019-03-23T16:20:10.730Z,25.57
2019-03-23T16:22:36.759Z,25.00
2019-03-23T16:25:07.790Z,23.02
2019-03-23T16:27:33.963Z,26.12
2019-03-23T16:29:59.996Z,22.95
2019-03-23T16:32:26.015Z,24.72
2019-03-23T16:34:52.084Z,24.85
2019-03-23T16:37:18.129Z,24.05
2019-03-23T16:39:44.206Z,27.00
2019-03-23T16:42:10.230Z,25.35
2019-03-23T16:44:36.261Z,24.90
2019-03-23T16:47:02.270Z,25.45
2019-03-23T16:49:28.339Z,23.98
2019-03-23T16:51:54.483Z,26.52
2019-03-23T16:54:20.739Z,25.10
2019-03-23T16:56:47.014Z,23.27
2019-03-23T16:59:13.140Z,25.45
2019-03-23T17:01:39.172Z,25.40
2019-03-23T17:04:05.190Z,25.45
2019-03-23T17:06:31.247Z,24.27
2019-03-23T17:08:57.272Z,24.82
2019-03-23T17:11:23.298Z,23.32
2019-03-23T17:13:49.318Z,25.57
2019-03-23T17:16:15.350Z,26.23
2019-03-23T17:18:41.359Z,24.40
2019-03-23T17:21:07.398Z,24.15
2019-03-23T17:23:33.427Z,24.77
2019-03-23T18:34:06.140Z,26.42
2019-03-23T18:36:34.572Z,24.53
2019-03-23T18:39:04.436Z,23.27
2019-03-23T18:41:32.928Z,27.03
2019-03-23T18:44:01.618Z,25.77
2019-03-23T18:46:30.056Z,25.30
2019-03-23T18:48:58.580Z,24.53
2019-03-23T18:51:27.003Z,25.97
2019-03-23T18:53:55.402Z,25.54
2019-03-23T18:56:23.854Z,26.00
2019-03-23T18:58:52.271Z,26.48
2019-03-23T19:01:20.705Z,26.70
2019-03-23T19:03:49.363Z,26.60
2019-03-23T19:06:18.007Z,25.12
2019-03-23T19:08:46.450Z,27.65
2019-03-23T19:11:15.109Z,27.82
2019-03-23T19:13:43.624Z,27.52
2019-03-23T19:16:12.109Z,26.20
2019-03-23T19:18:40.513Z,29.27
2019-03-23T19:21:08.969Z,30.82
2019-03-23T19:23:37.388Z,30.23
2019-03-23T19:26:06.063Z,28.83
2019-03-23T19:28:34.508Z,27.30
2019-03-23T19:31:02.918Z,26.82
2019-03-23T19:33:31.404Z,28.50
2019-03-23T19:35:59.822Z,30.57
2019-03-23T19:38:28.236Z,30.10
2019-03-23T19:40:56.652Z,28.50
2019-03-23T19:43:25.339Z,28.32
2019-03-23T19:45:53.784Z,29.40
2019-03-23T19:48:22.281Z,27.22
2019-03-23T19:50:50.765Z,27.40
2019-03-23T19:53:19.198Z,29.18
2019-03-23T19:55:48.517Z,29.02
2019-03-23T19:58:16.947Z,30.48
2019-03-23T20:00:45.359Z,27.67
2019-03-23T20:03:13.820Z,30.62
2019-03-23T20:05:42.294Z,28.62
2019-03-23T20:08:10.737Z,29.05
2019-03-23T20:10:39.301Z,30.52
2019-03-23T20:13:07.716Z,29.23
2019-03-23T20:15:36.121Z,30.10
2019-03-23T20:18:05.003Z,29.42
2019-03-23T20:20:33.476Z,30.12
2019-03-23T20:23:02.182Z,28.57
2019-03-23T20:25:30.617Z,29.45
2019-03-23T20:27:59.051Z,31.13
2019-03-23T20:30:28.528Z,29.40
2019-03-23T20:32:56.932Z,28.15
2019-03-23T20:35:25.660Z,29.60
2019-03-23T20:37:54.167Z,29.00
2019-03-23T20:40:22.595Z,29.65
2019-03-23T20:42:51.032Z,29.63
2019-03-23T20:45:30.373Z,29.00
2019-03-23T20:47:59.752Z,27.40
2019-03-23T20:50:28.225Z,29.12
2019-03-23T20:52:56.797Z,30.10
2019-03-23T20:55:27.156Z,29.87
2019-03-23T20:57:55.716Z,30.48
2019-03-23T21:00:24.133Z,30.95
2019-03-23T21:02:52.531Z,28.75
2019-03-23T21:05:20.946Z,29.23
2019-03-23T21:07:49.374Z,28.87
2019-03-23T21:10:17.884Z,30.10
2019-03-23T21:12:46.624Z,30.02
2019-03-23T21:15:15.120Z,29.35
2019-03-23T21:17:51.158Z,29.10
2019-03-23T21:20:14.321Z,27.83
2019-03-23T21:22:42.723Z,29.33
2019-03-23T21:25:12.251Z,28.42
2019-03-23T21:27:40.685Z,29.63
2019-03-23T21:30:16.554Z,29.00
2019-03-23T21:32:45.098Z,28.50
2019-03-23T21:35:15.807Z,29.67
2019-03-23T21:37:44.277Z,29.43
2019-03-23T21:40:12.943Z,29.65
2019-03-23T21:42:41.352Z,28.20
2019-03-23T21:45:10.521Z,27.15
2019-03-23T21:47:38.926Z,28.42
2019-03-23T21:50:09.089Z,30.23
2019-03-23T21:52:37.789Z,31.52
2019-03-23T21:55:07.595Z,29.92
2019-03-23T21:57:36.188Z,30.77
2019-03-23T22:00:06.982Z,29.10
2019-03-23T22:02:35.382Z,30.70
2019-03-23T22:05:04.965Z,29.95
2019-03-23T22:07:33.376Z,30.10
2019-03-23T22:10:01.801Z,28.35
2019-03-23T22:12:30.226Z,28.67
2019-03-23T22:14:58.645Z,28.83
2019-03-23T22:17:27.053Z,27.98
2019-03-23T22:19:55.725Z,29.80
2019-03-23T22:22:24.208Z,27.85
2019-03-23T22:24:52.632Z,27.67
2019-03-23T22:27:21.058Z,29.37
2019-03-23T22:29:49.542Z,31.35
2019-03-23T22:32:18.145Z,28.60
2019-03-23T22:34:49.129Z,28.87
2019-03-23T22:37:16.920Z,31.60
2019-03-23T22:39:45.333Z,29.82
2019-03-23T22:42:13.749Z,30.17
2019-03-23T22:44:52.142Z,30.62
2019-03-23T22:47:13.882Z,29.32
2019-03-23T22:49:42.305Z,29.37
2019-03-23T22:52:10.726Z,29.40
2019-03-23T22:54:39.524Z,29.60
2019-03-23T22:57:07.981Z,30.50
2019-03-23T22:59:36.457Z,29.45
2019-03-23T23:02:05.029Z,29.02
2019-03-23T23:04:33.785Z,30.00
2019-03-23T23:07:02.189Z,30.07
2019-03-23T23:09:30.695Z,29.48
2019-03-23T23:11:59.106Z,30.37
2019-03-23T23:14:27.531Z,29.57
2019-03-23T23:16:56.294Z,28.67
2019-03-23T23:19:24.723Z,29.35
2019-03-23T23:21:53.180Z,28.35
2019-03-23T23:24:21.866Z,26.30
2019-03-23T23:26:50.333Z,27.57
2019-03-23T23:29:18.749Z,26.10
2019-03-23T23:31:47.186Z,27.65
2019-03-23T23:34:15.600Z,26.75
2019-03-23T23:36:44.021Z,26.73
2019-03-23T23:39:12.428Z,25.27
2019-03-23T23:41:40.844Z,24.90
2019-03-23T23:44:09.256Z,26.33
2019-03-23T23:46:37.673Z,24.40
2019-03-23T23:49:06.483Z,25.90
2019-03-23T23:51:34.905Z,24.65
2019-03-23T23:54:03.393Z,23.95
2019-03-23T23:56:31.823Z,24.23
2019-03-23T23:59:00.299Z,24.50
